This is the latest recevied weather packets stored in our database for station/object W1CAT. If no packets are shown the sender has not sent any weather packets the latest 10 day(s).
| Time | Temp. | Humidity | Pressure | Rain* | Wind** | Luminosity | Snow |
|---|---|---|---|---|---|---|---|
| 1777928602 | 12.78° C | 50% | - | 0 mm | - | - | - |
| 1777928300 | 13.33° C | 51% | - | 0 mm | - | - | - |
| 1777927997 | 12.22° C | 53% | - | 0 mm | - | - | - |
| 1777927695 | 11.67° C | 55% | - | 0 mm | - | - | - |
| 1777927393 | 11.11° C | 58% | - | 0 mm | - | - | - |
| 1777927093 | 10.56° C | 56% | - | 0 mm | - | - | - |
| 1777926789 | 10.56° C | 54% | - | 0 mm | - | - | - |
| 1777926484 | 10.56° C | 58% | - | 0 mm | - | - | - |
| 1777926182 | 11.11° C | 57% | - | 0 mm | - | - | - |
| 1777925878 | 11.11° C | 52% | - | 0 mm | - | - | - |
| 1777925576 | 11.67° C | 53% | - | 0 mm | - | - | - |
| 1777925274 | 13.33° C | 44% | - | 0 mm | - | - | - |
| 1777924969 | 13.33° C | 40% | - | 0 mm | - | - | - |
| 1777924666 | 15.56° C | 34% | - | 0 mm | - | - | - |
| 1777924361 | 17.22° C | 29% | - | 0 mm | - | - | - |
| 1777924059 | 16.67° C | 31% | - | 0 mm | - | - | - |
| 1777923755 | 17.78° C | 28% | - | 0 mm | - | - | - |
| 1777923451 | 17.22° C | 31% | - | 0 mm | - | - | - |
| 1777923149 | 18.33° C | 30% | - | 0 mm | - | - | - |
| 1777922847 | 18.89° C | 29% | - | 0 mm | - | - | - |
| 1777922545 | 18.33° C | 31% | - | 0 mm | - | - | - |
| 1777922243 | 18.33° C | 30% | - | 0 mm | - | - | - |
| 1777921940 | 17.78° C | 32% | - | 0 mm | - | - | - |
| 1777921635 | 17.78° C | 33% | - | 0 mm | - | - | - |
| 1777921332 | 15.56° C | 36% | - | 0 mm | - | - | - |
* Rain latest hour (hover to see other rain measurements)
** Current wind speed in m/s (hover to see current wind gust speed)